Time;durP1;ratioP1;P1;durP2;ratioP2;P2;SDS_P1;SDS_P2;PMS_P1;PMS_P2;Temp;Humidity;BMP_temperature;BMP_pressure;BME280_temperature;BME280_humidity;BME280_pressure;Samples;Min_cycle;Max_cycle;Signal;HPM_P1;HPM_P2
2022/06/09 00:01:46;;;;;;;23.10;10.80;;;14.80;99.90;;;;;;5015390;28;20029;-72
2022/06/09 00:04:17;;;;;;;23.77;9.57;;;14.80;99.90;;;;;;5031778;28;20102;-72
2022/06/09 00:06:48;;;;;;;27.20;10.68;;;14.80;99.90;;;;;;5031775;28;20041;-72
2022/06/09 00:09:16;;;;;;;21.05;9.32;;;14.90;99.90;;;;;;5031900;28;20382;-72
2022/06/09 00:11:47;;;;;;;24.58;9.32;;;14.90;99.90;;;;;;5032572;28;20394;-72
2022/06/09 00:14:13;;;;;;;25.02;9.95;;;14.80;99.90;;;;;;5035161;28;20049;-73
2022/06/09 00:16:39;;;;;;;31.33;11.48;;;14.90;99.90;;;;;;5035210;28;20049;-73
2022/06/09 00:19:05;;;;;;;27.50;11.32;;;14.90;99.90;;;;;;5035227;28;20396;-73
2022/06/09 00:21:35;;;;;;;23.65;10.27;;;14.80;99.90;;;;;;5035084;28;20052;-73
2022/06/09 00:24:01;;;;;;;21.75;10.85;;;14.80;99.90;;;;;;5053118;28;20149;-73
2022/06/09 00:26:28;;;;;;;27.13;10.18;;;14.80;99.90;;;;;;5034724;28;20052;-73
2022/06/09 00:28:54;;;;;;;27.67;10.52;;;14.80;99.90;;;;;;5034948;28;20045;-73
2022/06/09 00:31:20;;;;;;;24.60;10.27;;;14.80;99.90;;;;;;5035451;28;20048;-73
2022/06/09 00:33:46;;;;;;;21.38;10.52;;;14.80;99.90;;;;;;5035120;28;20049;-73
2022/06/09 00:36:12;;;;;;;22.67;10.32;;;14.80;99.90;;;;;;5034935;28;20064;-73
2022/06/09 00:38:38;;;;;;;24.13;10.30;;;14.80;99.90;;;;;;5034951;28;20424;-73
2022/06/09 00:41:04;;;;;;;22.35;10.65;;;14.80;99.90;;;;;;5034836;28;20474;-73
2022/06/09 00:43:31;;;;;;;28.98;10.80;;;14.80;99.90;;;;;;5034720;28;20508;-73
2022/06/09 00:46:18;;;;;;;24.50;10.45;;;14.80;99.90;;;;;;5034936;28;20371;-73
2022/06/09 00:48:51;;;;;;;24.77;9.35;;;14.80;99.90;;;;;;5034831;28;20044;-73
2022/06/09 00:51:32;;;;;;;22.23;9.68;;;14.80;99.90;;;;;;5034707;28;20052;-72
2022/06/09 00:54:10;;;;;;;23.65;11.00;;;14.80;99.90;;;;;;5034427;28;20245;-72
2022/06/09 00:56:43;;;;;;;22.80;10.57;;;14.80;99.90;;;;;;5034691;28;20402;-72
2022/06/09 00:59:16;;;;;;;26.00;10.85;;;14.80;99.90;;;;;;5018438;28;20068;-72
2022/06/09 01:01:43;;;;;;;28.13;10.95;;;14.70;99.90;;;;;;5034286;28;20098;-72
2022/06/09 01:04:11;;;;;;;23.20;10.45;;;14.70;99.90;;;;;;5034495;28;20044;-72
2022/06/09 01:06:56;;;;;;;24.63;10.18;;;14.70;99.90;;;;;;5034644;28;20390;-72
2022/06/09 01:09:24;;;;;;;24.00;11.13;;;14.70;99.90;;;;;;5034303;28;20045;-72
2022/06/09 01:11:52;;;;;;;22.83;9.38;;;14.70;99.90;;;;;;5034177;28;20453;-72
2022/06/09 01:14:23;;;;;;;29.85;10.00;;;14.70;99.90;;;;;;5052137;28;20132;-72
2022/06/09 01:17:04;;;;;;;26.88;10.70;;;14.70;99.90;;;;;;5034055;28;20478;-72
2022/06/09 01:19:51;;;;;;;22.83;9.95;;;14.70;99.90;;;;;;5034046;28;20048;-72
2022/06/09 01:22:54;;;;;;;28.63;10.32;;;14.60;99.90;;;;;;5051929;28;20124;-72
2022/06/09 01:25:33;;;;;;;23.65;9.73;;;14.70;99.90;;;;;;5033408;28;20162;-72
2022/06/09 01:28:21;;;;;;;29.58;11.02;;;14.70;99.90;;;;;;5034113;28;20033;-72
2022/06/09 01:30:54;;;;;;;25.05;9.88;;;14.70;99.90;;;;;;5033801;28;20486;-72
2022/06/09 01:33:36;;;;;;;27.55;10.35;;;14.70;99.90;;;;;;5017334;28;20482;-72
2022/06/09 01:36:11;;;;;;;24.80;10.10;;;14.70;99.90;;;;;;5033936;28;20477;-72
2022/06/09 01:38:54;;;;;;;32.78;11.35;;;14.70;99.90;;;;;;5033834;28;20037;-72
2022/06/09 01:41:22;;;;;;;25.80;10.35;;;14.70;99.90;;;;;;5033806;28;20029;-72
2022/06/09 01:43:50;;;;;;;25.80;11.10;;;14.70;99.90;;;;;;5033705;28;20052;-72
2022/06/09 01:46:28;;;;;;;27.90;10.60;;;14.70;99.90;;;;;;5017021;28;20573;-72
2022/06/09 01:48:57;;;;;;;29.83;10.90;;;14.70;99.90;;;;;;5033520;28;20041;-72
2022/06/09 01:51:26;;;;;;;30.42;11.45;;;14.70;99.90;;;;;;5033290;28;20551;-72
2022/06/09 01:54:09;;;;;;;28.17;11.57;;;14.70;99.90;;;;;;5030035;28;20092;-72
2022/06/09 01:56:45;;;;;;;25.77;11.45;;;14.70;99.90;;;;;;5030246;28;20110;-72
2022/06/09 01:59:22;;;;;;;28.48;12.45;;;14.60;99.90;;;;;;5030257;28;20087;-72
2022/06/09 02:02:00;;;;;;;27.55;12.10;;;14.60;99.90;;;;;;5029936;28;20079;-72
2022/06/09 02:04:48;;;;;;;30.52;11.90;;;14.60;99.90;;;;;;5031337;28;20072;-72
2022/06/09 02:07:16;;;;;;;30.05;12.30;;;14.60;99.90;;;;;;5030045;28;20422;-72
2022/06/09 02:09:43;;;;;;;27.95;12.00;;;14.60;99.90;;;;;;5029856;28;20080;-72
2022/06/09 02:12:13;;;;;;;22.45;11.55;;;14.50;99.90;;;;;;5029703;28;20387;-72
2022/06/09 02:14:44;;;;;;;32.28;11.80;;;14.50;99.90;;;;;;5030311;28;20214;-72
2022/06/09 02:17:10;;;;;;;;;;;14.40;99.90;;;;;;5030244;28;20037;-72
2022/06/09 02:19:37;;;;;;;25.75;11.32;;;14.50;99.90;;;;;;5013194;28;20278;-72
2022/06/09 02:22:05;;;;;;;25.38;11.40;;;14.50;99.90;;;;;;5030063;28;20395;-72
2022/06/09 02:24:32;;;;;;;25.73;11.30;;;14.50;99.90;;;;;;5029772;28;20041;-72
2022/06/09 02:26:58;;;;;;;26.95;10.70;;;14.50;99.90;;;;;;5029455;28;20069;-72
2022/06/09 02:29:24;;;;;;;24.80;11.10;;;14.50;99.90;;;;;;5029402;28;20045;-72
2022/06/09 02:31:49;;;;;;;29.23;11.15;;;14.50;99.90;;;;;;5030696;28;20041;-72
2022/06/09 02:34:15;;;;;;;29.02;11.95;;;14.40;99.90;;;;;;5029400;28;20103;-72
2022/06/09 02:36:41;;;;;;;29.13;11.88;;;14.40;99.90;;;;;;5028475;28;20041;-72
2022/06/09 02:39:06;;;;;;;24.05;11.07;;;14.40;99.90;;;;;;5029631;28;20125;-72
2022/06/09 02:41:33;;;;;;;32.85;12.73;;;14.40;99.90;;;;;;5029381;28;20037;-72
2022/06/09 02:43:59;;;;;;;26.85;12.73;;;14.50;99.90;;;;;;5030745;28;20087;-72
2022/06/09 02:46:25;;;;;;;27.95;14.15;;;14.50;99.90;;;;;;5029510;28;20038;-72
2022/06/09 02:48:50;;;;;;;30.98;13.20;;;14.50;99.90;;;;;;5012757;28;20033;-72
2022/06/09 02:51:28;;;;;;;29.90;13.40;;;14.50;99.90;;;;;;5029399;28;20041;-72
2022/06/09 02:53:59;;;;;;;27.63;13.00;;;14.50;99.90;;;;;;5040274;28;20056;-72
2022/06/09 02:56:25;;;;;;;29.08;13.07;;;14.50;99.90;;;;;;5015922;28;20044;-72
2022/06/09 02:58:51;;;;;;;29.73;12.93;;;14.50;99.90;;;;;;5032451;28;20442;-72
2022/06/09 03:01:17;;;;;;;31.50;12.63;;;14.50;99.90;;;;;;5032276;28;20445;-72
2022/06/09 03:03:43;;;;;;;30.80;12.77;;;14.50;99.90;;;;;;5032285;28;20552;-72
2022/06/09 03:06:08;;;;;;;30.05;12.63;;;14.40;99.90;;;;;;5050350;28;20065;-72
2022/06/09 03:08:34;;;;;;;25.98;11.88;;;14.50;99.90;;;;;;5032259;28;20398;-72
2022/06/09 03:11:00;;;;;;;27.55;12.73;;;14.50;99.90;;;;;;5032543;28;20110;-72
2022/06/09 03:13:26;;;;;;;25.98;12.82;;;14.40;99.90;;;;;;5015982;28;20099;-72
2022/06/09 03:15:52;;;;;;;32.53;13.52;;;14.50;99.90;;;;;;5032787;28;20498;-71
2022/06/09 03:18:18;;;;;;;24.95;12.30;;;14.50;99.90;;;;;;5032163;28;20049;-71
2022/06/09 03:20:45;;;;;;;22.52;12.65;;;14.50;99.90;;;;;;5032079;28;20073;-72
2022/06/09 03:23:11;;;;;;;25.85;12.00;;;14.40;99.90;;;;;;5015560;28;20056;-72
2022/06/09 03:25:37;;;;;;;25.40;12.43;;;14.50;99.90;;;;;;5031830;28;20041;-72
2022/06/09 03:28:04;;;;;;;26.23;13.32;;;14.50;99.90;;;;;;5031485;28;20076;-72
2022/06/09 03:30:30;;;;;;;23.27;12.73;;;14.40;99.90;;;;;;5031765;28;20048;-72
2022/06/09 03:32:55;;;;;;;28.88;12.15;;;14.40;99.90;;;;;;5031518;28;20108;-72
2022/06/09 03:35:21;;;;;;;24.02;13.15;;;14.40;99.90;;;;;;5031547;28;20072;-71
2022/06/09 03:37:46;;;;;;;30.60;12.38;;;14.40;99.90;;;;;;5014986;28;20044;-71
2022/06/09 03:40:15;;;;;;;24.58;11.63;;;14.40;99.90;;;;;;5015557;28;20152;-71
2022/06/09 03:42:41;;;;;;;21.40;11.82;;;14.40;99.90;;;;;;5031789;28;20057;-71
2022/06/09 03:45:07;;;;;;;22.88;11.55;;;14.40;99.90;;;;;;5015543;28;20035;-72
2022/06/09 03:47:33;;;;;;;26.40;11.32;;;14.50;99.90;;;;;;5033901;28;20043;-72
2022/06/09 03:49:58;;;;;;;22.08;10.85;;;14.40;99.90;;;;;;5035662;28;20045;-72
2022/06/09 03:52:24;;;;;;;20.35;10.43;;;14.40;99.90;;;;;;5035807;28;20437;-72
2022/06/09 03:54:49;;;;;;;26.02;11.25;;;14.40;99.90;;;;;;5018996;28;20132;-72
2022/06/09 03:57:15;;;;;;;21.38;11.57;;;14.40;99.90;;;;;;5019120;28;20045;-72
2022/06/09 03:59:41;;;;;;;22.08;11.20;;;14.50;99.90;;;;;;5035596;28;20538;-72
2022/06/09 04:02:06;;;;;;;23.45;11.45;;;14.40;99.90;;;;;;5035722;28;20503;-72
2022/06/09 04:04:32;;;;;;;17.40;9.95;;;14.50;99.90;;;;;;5035433;28;20119;-72
2022/06/09 04:06:58;;;;;;;20.73;10.15;;;14.50;99.90;;;;;;5035435;28;20042;-72
2022/06/09 04:09:24;;;;;;;25.23;9.80;;;14.40;99.90;;;;;;5035583;28;20075;-72
2022/06/09 04:11:49;;;;;;;15.57;8.70;;;14.50;99.90;;;;;;5035716;28;20041;-72
2022/06/09 04:14:15;;;;;;;19.17;9.35;;;14.50;99.90;;;;;;5035235;28;20120;-72
2022/06/09 04:16:45;;;;;;;18.75;9.73;;;14.40;99.90;;;;;;5035497;28;20033;-72
2022/06/09 04:19:15;;;;;;;21.02;9.60;;;14.50;99.90;;;;;;5035382;28;20046;-72
2022/06/09 04:21:43;;;;;;;20.10;9.80;;;14.40;99.90;;;;;;5035206;28;20128;-72
2022/06/09 04:24:08;;;;;;;17.38;8.90;;;14.50;99.90;;;;;;5018538;28;20079;-72
2022/06/09 04:26:37;;;;;;;20.00;9.63;;;14.50;99.90;;;;;;5035165;28;20084;-72
2022/06/09 04:29:05;;;;;;;16.80;8.60;;;14.50;99.90;;;;;;5035166;28;20037;-72
2022/06/09 04:31:31;;;;;;;19.17;9.80;;;14.50;99.90;;;;;;5034950;28;20079;-72
2022/06/09 04:33:57;;;;;;;17.80;10.25;;;14.50;99.90;;;;;;5034743;28;20044;-72
2022/06/09 04:36:23;;;;;;;20.13;10.00;;;14.50;99.90;;;;;;5035292;28;20475;-72
2022/06/09 04:38:48;;;;;;;16.15;8.80;;;14.50;99.90;;;;;;5034654;28;20070;-72
2022/06/09 04:41:15;;;;;;;17.45;9.35;;;14.60;99.90;;;;;;5034709;28;20040;-72
2022/06/09 04:43:44;;;;;;;20.00;10.00;;;14.50;99.90;;;;;;5035000;28;20044;-72
2022/06/09 04:46:13;;;;;;;17.13;8.98;;;14.60;99.90;;;;;;5034875;28;20045;-72
2022/06/09 04:48:39;;;;;;;19.15;8.75;;;14.60;99.90;;;;;;5034641;28;20114;-72
2022/06/09 04:51:06;;;;;;;14.50;8.13;;;14.60;99.90;;;;;;5034742;28;20128;-72
2022/06/09 04:53:33;;;;;;;16.60;10.75;;;14.60;99.90;;;;;;5034489;28;20384;-72
2022/06/09 04:55:58;;;;;;;15.43;10.68;;;14.60;99.90;;;;;;5034642;28;20049;-72
2022/06/09 04:58:24;;;;;;;17.23;11.60;;;14.70;99.90;;;;;;5033811;28;20498;-72
2022/06/09 05:00:50;;;;;;;16.75;12.00;;;14.70;99.90;;;;;;5052310;28;20039;-72
2022/06/09 05:03:15;;;;;;;15.52;12.20;;;14.70;99.90;;;;;;5034631;28;20475;-72
2022/06/09 05:05:43;;;;;;;17.60;13.30;;;14.70;99.90;;;;;;5034418;28;20083;-72
2022/06/09 05:08:11;;;;;;;19.02;13.90;;;14.60;99.90;;;;;;5034423;28;20045;-72
2022/06/09 05:10:37;;;;;;;21.25;14.05;;;14.60;99.90;;;;;;5034514;28;20076;-72
2022/06/09 05:13:05;;;;;;;18.20;14.45;;;14.70;99.90;;;;;;5034597;28;20143;-72
2022/06/09 05:15:35;;;;;;;21.35;14.98;;;14.60;99.90;;;;;;5034099;28;20049;-72
2022/06/09 05:18:00;;;;;;;19.67;14.70;;;14.70;99.90;;;;;;5034194;28;20486;-72
2022/06/09 05:20:26;;;;;;;16.67;14.07;;;14.70;99.90;;;;;;5017330;28;20040;-72
2022/06/09 05:22:52;;;;;;;21.88;16.33;;;14.70;99.90;;;;;;5017855;28;20407;-72
2022/06/09 05:25:18;;;;;;;19.13;16.75;;;14.70;99.90;;;;;;5033874;28;20548;-72
2022/06/09 05:27:45;;;;;;;21.70;15.60;;;14.70;99.90;;;;;;5033916;28;20103;-72
2022/06/09 05:30:17;;;;;;;18.75;15.05;;;14.60;99.90;;;;;;5033721;28;20048;-72
2022/06/09 05:32:43;;;;;;;20.98;17.80;;;14.60;99.90;;;;;;5033695;28;20099;-72
2022/06/09 05:35:10;;;;;;;19.17;16.75;;;14.60;99.90;;;;;;5033792;28;20070;-72
2022/06/09 05:45:48;;;;;;;19.67;17.58;;;14.70;99.90;;;;;;5033530;28;20131;-72
2022/06/09 05:48:14;;;;;;;20.52;18.27;;;14.70;99.90;;;;;;5017077;28;20468;-72
2022/06/09 05:50:39;;;;;;;21.40;19.20;;;14.80;99.90;;;;;;5033509;28;20268;-72
2022/06/09 05:53:05;;;;;;;20.98;18.45;;;14.80;99.90;;;;;;5033368;28;20595;-72
2022/06/09 05:55:31;;;;;;;22.92;20.45;;;14.80;99.90;;;;;;5033326;28;20080;-72
2022/06/09 05:57:57;;;;;;;22.13;19.45;;;14.80;99.90;;;;;;5033430;28;20045;-72
2022/06/09 06:00:23;;;;;;;24.17;20.08;;;14.90;99.90;;;;;;5016972;28;20073;-72
2022/06/09 06:02:49;;;;;;;24.70;21.75;;;14.90;99.90;;;;;;5033286;28;20499;-72
2022/06/09 06:07:59;;;;;;;23.10;20.27;;;15.00;99.90;;;;;;5033371;28;20399;-72
2022/06/09 06:10:24;;;;;;;24.13;21.60;;;15.10;99.90;;;;;;5032888;28;20045;-72
2022/06/09 06:12:50;;;;;;;25.20;21.73;;;15.10;99.90;;;;;;5033116;28;20045;-73
2022/06/09 06:15:16;;;;;;;24.23;20.80;;;15.10;99.90;;;;;;5033037;28;20139;-73
2022/06/09 06:17:41;;;;;;;25.27;22.70;;;15.10;99.90;;;;;;5016608;28;20076;-73
2022/06/09 06:20:07;;;;;;;23.75;21.27;;;15.10;99.90;;;;;;5032890;28;20520;-72
2022/06/09 06:22:33;;;;;;;29.20;23.95;;;15.10;99.90;;;;;;5032980;28;20080;-72
2022/06/09 06:24:59;;;;;;;22.48;20.10;;;15.10;99.90;;;;;;5032940;28;20494;-72
2022/06/09 06:27:26;;;;;;;25.20;22.60;;;15.20;99.90;;;;;;5032899;28;20052;-72
2022/06/09 06:29:51;;;;;;;26.73;22.90;;;15.40;99.90;;;;;;5033310;28;20399;-72
2022/06/09 06:32:17;;;;;;;22.92;20.40;;;15.50;99.90;;;;;;5016434;28;20051;-72
2022/06/09 06:34:42;;;;;;;24.40;21.80;;;15.70;99.90;;;;;;5032722;28;20083;-72
2022/06/09 06:37:08;;;;;;;24.90;22.10;;;15.90;99.90;;;;;;5032494;28;20126;-72
2022/06/09 06:39:34;;;;;;;24.38;21.80;;;15.90;99.90;;;;;;5032631;28;20064;-72
2022/06/09 06:41:59;;;;;;;24.75;22.25;;;16.00;99.90;;;;;;5032712;28;20052;-72
2022/06/09 06:44:25;;;;;;;23.83;21.33;;;16.20;99.90;;;;;;5032637;28;20052;-72
2022/06/09 06:46:51;;;;;;;24.42;21.85;;;16.40;99.90;;;;;;5050703;28;20494;-72
2022/06/09 06:49:16;;;;;;;21.65;19.05;;;16.60;99.90;;;;;;5032479;28;20090;-73
2022/06/09 06:51:42;;;;;;;22.02;19.85;;;17.00;99.90;;;;;;5032422;28;20053;-72
2022/06/09 06:54:08;;;;;;;21.35;19.33;;;17.20;99.90;;;;;;5032372;28;20091;-72
2022/06/09 06:56:35;;;;;;;20.67;18.67;;;17.60;99.90;;;;;;5015820;28;20060;-72
2022/06/09 06:59:01;;;;;;;19.35;17.52;;;17.90;99.90;;;;;;5032625;28;20071;-72
2022/06/09 07:01:27;;;;;;;19.00;17.15;;;18.20;99.90;;;;;;5032184;28;20072;-72
2022/06/09 07:03:54;;;;;;;19.02;17.13;;;18.70;99.90;;;;;;5015896;28;20044;-72
2022/06/09 07:06:20;;;;;;;16.17;14.60;;;19.10;99.90;;;;;;5032476;28;20119;-72
2022/06/09 07:08:46;;;;;;;14.90;13.52;;;19.40;99.90;;;;;;5032174;28;20357;-72
2022/06/09 07:11:12;;;;;;;14.60;13.25;;;20.10;99.90;;;;;;5032371;28;20071;-72
2022/06/09 07:13:38;;;;;;;14.75;13.52;;;20.90;99.90;;;;;;5015564;28;20048;-72
2022/06/09 07:16:05;;;;;;;14.38;12.98;;;21.00;99.90;;;;;;5032241;28;20398;-72
2022/06/09 07:18:32;;;;;;;13.52;12.23;;;21.10;99.90;;;;;;5032405;28;20492;-72
2022/06/09 07:20:59;;;;;;;14.30;13.00;;;21.10;99.90;;;;;;5032231;28;20119;-72
2022/06/09 07:23:26;;;;;;;13.13;11.75;;;21.40;99.90;;;;;;5036090;28;20382;-72
2022/06/09 07:25:52;;;;;;;13.35;12.10;;;21.90;99.90;;;;;;5019673;28;20079;-73
2022/06/09 07:28:18;;;;;;;11.73;9.55;;;22.50;99.90;;;;;;5036240;28;20509;-73
2022/06/09 07:30:44;;;;;;;10.57;9.60;;;23.40;99.90;;;;;;5036115;28;20037;-73
2022/06/09 07:33:10;;;;;;;10.20;9.20;;;24.10;99.90;;;;;;5035986;28;20041;-73
2022/06/09 07:35:37;;;;;;;10.60;9.63;;;24.50;99.90;;;;;;5036045;28;20051;-73
2022/06/09 07:38:05;;;;;;;11.30;9.55;;;24.10;98.10;;;;;;5035731;28;20055;-73
2022/06/09 07:40:33;;;;;;;9.10;8.30;;;23.10;99.90;;;;;;5035820;28;20048;-73
2022/06/09 07:42:58;;;;;;;8.90;8.07;;;23.00;99.90;;;;;;5035740;28;20049;-73
2022/06/09 07:45:24;;;;;;;6.47;5.88;;;23.40;99.90;;;;;;5035899;28;20441;-73
2022/06/09 07:47:49;;;;;;;6.40;5.90;;;24.10;99.90;;;;;;5035679;28;20037;-73
2022/06/09 07:50:16;;;;;;;6.28;5.53;;;24.70;99.90;;;;;;5035900;28;20098;-73
2022/06/09 07:52:43;;;;;;;6.05;5.55;;;24.70;97.10;;;;;;5035717;28;20437;-73
2022/06/09 07:55:09;;;;;;;7.00;6.30;;;25.00;97.70;;;;;;5035589;28;20084;-73
2022/06/09 07:57:35;;;;;;;6.45;5.82;;;24.40;98.20;;;;;;5035512;28;20576;-73
2022/06/09 08:00:03;;;;;;;5.78;5.10;;;23.90;99.90;;;;;;5035625;28;20465;-73
2022/06/09 08:02:29;;;;;;;5.28;4.78;;;23.30;99.90;;;;;;5035436;28;20052;-73
2022/06/09 08:04:55;;;;;;;6.15;4.85;;;22.90;99.90;;;;;;5035443;28;20397;-73
2022/06/09 08:07:21;;;;;;;5.53;4.70;;;22.90;99.90;;;;;;5035441;28;20040;-73
2022/06/09 08:09:47;;;;;;;3.78;3.42;;;23.20;99.90;;;;;;5053268;28;20068;-73
2022/06/09 08:12:13;;;;;;;6.65;3.50;;;23.30;99.90;;;;;;5035404;28;20442;-74
2022/06/09 08:14:38;;;;;;;4.10;2.97;;;22.90;99.90;;;;;;5035299;28;20044;-73
2022/06/09 08:17:05;;;;;;;3.85;2.78;;;22.50;99.90;;;;;;5035289;28;20383;-74
2022/06/09 08:19:31;;;;;;;5.13;3.00;;;22.10;99.90;;;;;;5035070;28;20055;-74
2022/06/09 08:21:56;;;;;;;5.22;3.05;;;21.90;99.90;;;;;;5035170;28;20398;-73
2022/06/09 08:24:22;;;;;;;5.15;3.05;;;21.80;99.90;;;;;;5035230;28;20094;-76
2022/06/09 08:26:48;;;;;;;3.90;2.70;;;21.70;99.90;;;;;;5035591;28;20134;-77
2022/06/09 08:29:15;;;;;;;6.35;2.58;;;21.60;99.90;;;;;;5053114;28;20029;-76
2022/06/09 08:31:41;;;;;;;4.80;2.90;;;21.60;99.90;;;;;;5035187;28;20056;-77
2022/06/09 08:34:09;;;;;;;3.15;2.38;;;21.60;99.90;;;;;;5033889;28;20095;-76
2022/06/09 08:36:35;;;;;;;3.35;1.95;;;21.50;99.90;;;;;;5035156;28;20398;-76
2022/06/09 08:39:01;;;;;;;4.03;1.80;;;21.60;99.90;;;;;;5034846;28;20041;-76
2022/06/09 08:41:41;;;;;;;4.55;1.65;;;21.50;99.90;;;;;;5034813;28;20068;-77
2022/06/09 08:44:23;;;;;;;3.83;1.67;;;21.30;99.90;;;;;;5035033;28;20561;-76
2022/06/09 08:46:55;;;;;;;2.92;1.75;;;21.20;99.90;;;;;;5034933;28;20284;-76
2022/06/09 08:49:47;;;;;;;6.95;1.50;;;21.10;99.90;;;;;;5034574;28;20124;-77
2022/06/09 08:52:38;;;;;;;2.72;1.35;;;20.90;99.90;;;;;;5035000;28;20037;-76
2022/06/09 08:55:21;;;;;;;6.03;1.40;;;21.00;99.90;;;;;;5003460;28;20061;-76
2022/06/09 08:57:48;;;;;;;3.80;1.40;;;20.90;99.90;;;;;;4995313;28;20049;-76
2022/06/09 09:00:18;;;;;;;2.85;1.48;;;20.90;99.90;;;;;;5011474;28;20044;-76
2022/06/09 09:02:51;;;;;;;3.60;1.23;;;20.70;99.90;;;;;;5011514;28;20136;-76
2022/06/09 09:05:23;;;;;;;3.35;1.10;;;20.70;99.90;;;;;;5011475;28;20046;-77
2022/06/09 09:07:51;;;;;;;2.88;1.50;;;20.90;99.90;;;;;;5020515;23;20046;-73
2022/06/09 09:10:31;;;;;;;3.17;1.30;;;21.10;99.90;;;;;;5014120;28;20053;-73
2022/06/09 09:13:31;;;;;;;2.45;1.25;;;21.20;99.90;;;;;;5014614;28;20041;-73
2022/06/09 09:16:02;;;;;;;3.03;1.20;;;21.10;99.90;;;;;;5014284;28;20041;-73
2022/06/09 09:18:53;;;;;;;5.00;1.60;;;21.20;99.90;;;;;;5014371;28;20061;-73
2022/06/09 09:21:37;;;;;;;4.22;1.27;;;21.20;99.90;;;;;;5014299;28;20045;-73
2022/06/09 09:24:21;;;;;;;3.40;1.10;;;21.20;99.90;;;;;;5014082;28;20080;-73
2022/06/09 09:27:02;;;;;;;3.63;1.30;;;21.10;99.90;;;;;;5014160;28;20044;-73
2022/06/09 09:29:35;;;;;;;3.80;0.93;;;20.90;99.90;;;;;;5030624;28;20042;-74
2022/06/09 09:32:18;;;;;;;3.72;1.10;;;21.00;99.90;;;;;;5014314;28;20049;-73
2022/06/09 09:34:47;;;;;;;3.65;0.98;;;21.30;99.90;;;;;;5014192;28;20084;-73
2022/06/09 09:37:27;;;;;;;4.53;1.35;;;21.40;99.90;;;;;;5014524;28;20387;-74
2022/06/09 09:40:16;;;;;;;3.20;1.10;;;21.20;99.90;;;;;;5030220;28;20115;-74
2022/06/09 09:42:43;;;;;;;3.08;1.05;;;21.30;99.90;;;;;;5030633;28;20099;-73
2022/06/09 09:45:11;;;;;;;4.88;1.38;;;21.40;99.90;;;;;;5013479;28;20487;-73
2022/06/09 09:47:51;;;;;;;6.20;1.10;;;21.30;99.90;;;;;;5030632;28;20068;-73
2022/06/09 09:50:46;;;;;;;5.20;1.20;;;21.50;99.90;;;;;;5013738;28;20056;-73
2022/06/09 09:53:18;;;;;;;2.83;1.13;;;21.60;99.90;;;;;;5013630;28;20055;-73
2022/06/09 09:55:59;;;;;;;4.78;1.38;;;21.50;99.90;;;;;;5013687;28;20061;-73
2022/06/09 09:58:28;;;;;;;3.35;0.98;;;21.60;99.90;;;;;;5013618;28;20037;-73
2022/06/09 10:01:01;;;;;;;4.22;1.30;;;21.50;99.90;;;;;;5013692;28;20049;-73
2022/06/09 10:09:35;;;;;;;3.60;0.90;;;21.50;99.90;;;;;;5013257;28;20049;-73
2022/06/09 10:12:12;;;;;;;3.88;1.13;;;21.60;99.90;;;;;;5013298;28;20038;-73
2022/06/09 10:15:02;;;;;;;2.70;1.20;;;21.70;99.90;;;;;;5013263;28;20038;-73
2022/06/09 10:17:43;;;;;;;4.72;1.08;;;21.50;99.90;;;;;;5013565;28;20390;-73
2022/06/09 10:20:41;;;;;;;5.32;1.30;;;21.60;99.90;;;;;;5013045;28;20383;-73
2022/06/09 10:23:06;;;;;;;3.50;1.30;;;21.80;99.90;;;;;;5013170;28;20091;-73
2022/06/09 10:26:00;;;;;;;3.65;1.30;;;21.90;99.90;;;;;;5029783;28;20047;-73
2022/06/09 10:28:36;;;;;;;5.15;1.50;;;21.90;99.90;;;;;;5013364;28;20033;-73
2022/06/09 10:31:09;;;;;;;5.88;1.38;;;21.60;99.90;;;;;;5013161;28;20055;-73
2022/06/09 10:33:49;;;;;;;4.07;1.17;;;21.50;99.90;;;;;;5013325;28;20505;-73
2022/06/09 10:37:04;;;;;;;3.45;1.10;;;21.60;99.90;;;;;;5013064;28;20046;-73
2022/06/09 10:39:36;;;;;;;3.08;1.10;;;21.70;99.90;;;;;;4997809;28;20388;-73
2022/06/09 10:42:28;;;;;;;4.00;1.27;;;21.90;99.90;;;;;;5029232;28;20175;-73
2022/06/09 10:45:16;;;;;;;4.45;1.40;;;22.10;99.90;;;;;;5029673;28;20111;-73
2022/06/09 10:57:24;;;;;;;4.93;1.00;;;22.50;99.40;;;;;;5012051;28;20053;-73
2022/06/09 11:00:16;;;;;;;4.15;0.88;;;22.50;99.90;;;;;;5012842;28;20052;-73
2022/06/09 11:02:54;;;;;;;1.95;0.60;;;22.60;98.40;;;;;;5012554;28;20138;-73
2022/06/09 11:05:33;;;;;;;2.83;0.80;;;22.50;98.40;;;;;;5012879;28;20041;-73
2022/06/09 11:08:18;;;;;;;3.85;0.85;;;22.40;98.50;;;;;;5030170;28;20041;-72
2022/06/09 11:11:05;;;;;;;3.38;0.80;;;22.30;96.90;;;;;;5030323;28;20045;-73
2022/06/09 11:13:44;;;;;;;3.75;0.82;;;22.30;98.20;;;;;;5028925;28;20042;-73
2022/06/09 11:16:47;;;;;;;3.88;1.17;;;22.30;98.60;;;;;;5012422;28;20056;-73
2022/06/09 11:19:44;;;;;;;3.15;1.00;;;22.30;98.00;;;;;;5012450;28;20060;-73
2022/06/09 11:22:49;;;;;;;3.58;1.27;;;22.10;97.90;;;;;;5012880;28;20356;-73
2022/06/09 11:25:41;;;;;;;4.43;1.00;;;22.10;98.60;;;;;;4974210;28;20627;-73
2022/06/09 11:28:20;;;;;;;7.32;1.02;;;22.10;98.30;;;;;;5012527;28;20064;-73
2022/06/09 11:30:48;;;;;;;5.72;0.90;;;22.20;99.90;;;;;;5029044;28;20037;-73
2022/06/09 11:33:45;;;;;;;3.15;0.85;;;22.30;98.90;;;;;;5029043;28;20069;-73
2022/06/09 11:36:30;;;;;;;5.97;1.40;;;22.60;99.30;;;;;;4996049;28;20045;-73
2022/06/09 11:39:33;;;;;;;3.35;1.42;;;22.70;98.20;;;;;;5012586;28;20050;-73
2022/06/09 11:42:33;;;;;;;3.10;0.85;;;22.70;97.90;;;;;;5012370;28;20069;-73
2022/06/09 11:45:04;;;;;;;3.78;1.25;;;22.80;96.90;;;;;;5012546;28;20387;-73
2022/06/09 11:47:32;;;;;;;2.95;0.68;;;22.60;96.30;;;;;;4996190;28;20053;-73
2022/06/09 11:50:04;;;;;;;4.72;1.10;;;22.80;98.00;;;;;;5012481;28;20455;-73
2022/06/09 11:52:39;;;;;;;2.83;0.80;;;22.70;98.40;;;;;;5012435;28;20069;-73
2022/06/09 11:55:27;;;;;;;4.32;1.25;;;22.50;97.50;;;;;;5028730;28;20046;-73
2022/06/09 11:57:53;;;;;;;3.38;1.08;;;22.20;99.00;;;;;;5012304;28;20037;-73
2022/06/09 12:00:19;;;;;;;3.38;0.98;;;22.30;99.20;;;;;;5011960;28;20078;-73
2022/06/09 12:03:03;;;;;;;4.32;1.23;;;22.50;99.30;;;;;;5028702;28;20402;-73
2022/06/09 12:05:38;;;;;;;3.63;0.90;;;22.50;98.40;;;;;;5028615;28;20045;-73
2022/06/09 12:08:22;;;;;;;5.85;1.02;;;22.50;96.70;;;;;;5012954;28;20050;-73
2022/06/09 12:11:01;;;;;;;3.55;1.00;;;22.40;97.00;;;;;;5032233;28;20049;-73
2022/06/09 12:13:36;;;;;;;4.72;1.20;;;22.20;97.60;;;;;;4999559;28;20041;-73
2022/06/09 12:16:05;;;;;;;3.78;1.08;;;22.20;99.30;;;;;;5032491;28;20391;-73
2022/06/09 12:18:36;;;;;;;5.25;1.23;;;22.20;99.50;;;;;;5015540;28;20495;-73
2022/06/09 12:21:11;;;;;;;3.47;1.10;;;22.30;99.20;;;;;;5015498;28;20072;-73
2022/06/09 12:23:40;;;;;;;2.95;1.08;;;22.30;99.30;;;;;;5015328;28;20037;-73
2022/06/09 12:26:09;;;;;;;2.47;1.02;;;22.40;99.40;;;;;;4999108;28;20083;-73
2022/06/09 12:28:49;;;;;;;2.47;0.90;;;22.30;98.30;;;;;;5031597;28;20038;-73
2022/06/09 12:31:21;;;;;;;3.47;1.10;;;22.40;99.90;;;;;;4999117;28;20056;-73
2022/06/09 12:33:54;;;;;;;4.15;1.52;;;22.50;98.00;;;;;;5031832;28;20046;-73
2022/06/09 12:36:46;;;;;;;5.40;1.40;;;22.50;98.20;;;;;;5033008;28;20029;-73
2022/06/09 12:39:27;;;;;;;4.70;1.20;;;22.50;99.90;;;;;;5009864;28;20067;-73
2022/06/09 12:41:59;;;;;;;3.15;1.30;;;21.90;97.40;;;;;;4998677;28;20124;-73
2022/06/09 12:44:32;;;;;;;5.40;1.38;;;21.70;99.00;;;;;;4998543;28;20087;-73
2022/06/09 12:47:12;;;;;;;4.65;1.20;;;21.80;99.20;;;;;;5015057;28;20099;-73
2022/06/09 12:49:39;;;;;;;4.10;1.33;;;22.10;99.90;;;;;;5014931;28;20057;-72
2022/06/09 12:52:17;;;;;;;2.75;1.00;;;22.20;99.60;;;;;;5014872;28;20072;-73
2022/06/09 12:54:43;;;;;;;5.38;1.00;;;22.10;99.80;;;;;;5014862;28;20410;-73
2022/06/09 12:57:31;;;;;;;3.47;0.93;;;22.00;99.00;;;;;;5015298;28;20044;-73
2022/06/09 13:00:21;;;;;;;3.83;0.98;;;22.10;99.90;;;;;;5014741;28;20049;-73
2022/06/09 13:02:48;;;;;;;3.58;0.90;;;22.10;99.60;;;;;;5014919;28;20042;-73
2022/06/09 13:05:19;;;;;;;3.40;0.80;;;21.90;96.50;;;;;;5014507;28;20083;-72
2022/06/09 13:08:03;;;;;;;3.95;1.10;;;21.40;97.10;;;;;;5014438;28;20041;-72
2022/06/09 13:10:34;;;;;;;3.22;0.85;;;21.20;97.70;;;;;;5014908;28;20383;-72
2022/06/09 13:13:11;;;;;;;3.42;0.90;;;21.30;99.90;;;;;;5014674;28;20051;-73
2022/06/09 13:15:38;;;;;;;2.40;1.10;;;21.50;99.90;;;;;;5030811;28;20128;-73
2022/06/09 13:18:17;;;;;;;4.90;1.17;;;21.70;99.70;;;;;;4998125;28;20037;-72
2022/06/09 13:20:51;;;;;;;4.35;0.90;;;21.90;98.60;;;;;;5013403;28;20076;-72
2022/06/09 13:23:18;;;;;;;3.42;0.95;;;21.90;98.70;;;;;;5014151;28;20033;-72
2022/06/09 13:25:46;;;;;;;3.67;1.25;;;22.10;99.90;;;;;;5014386;28;20038;-72